createdAt,value
2019-05-21T00:02:34.941Z,9.27
2019-05-21T00:06:38.045Z,8.80
2019-05-21T00:10:41.144Z,10.10
2019-05-21T00:14:44.241Z,14.07
2019-05-21T00:18:47.442Z,12.77
2019-05-21T00:22:50.530Z,9.63
2019-05-21T00:26:53.652Z,10.43
2019-05-21T00:31:14.541Z,12.83
2019-05-21T00:35:50.282Z,10.93
2019-05-21T00:40:11.061Z,13.63
2019-05-21T00:44:14.244Z,10.50
2019-05-21T00:48:17.356Z,12.67
2019-05-21T00:52:20.445Z,12.13
2019-05-21T00:56:23.549Z,11.00
2019-05-21T01:00:26.648Z,13.13
2019-05-21T01:04:29.750Z,12.17
2019-05-21T01:08:32.858Z,13.77
2019-05-21T01:12:35.936Z,11.53
2019-05-21T01:16:39.056Z,12.57
2019-05-21T01:20:42.168Z,14.50
2019-05-21T01:24:45.264Z,13.57
2019-05-21T01:28:48.352Z,12.30
2019-05-21T01:32:51.452Z,11.50
2019-05-21T01:36:54.604Z,15.40
2019-05-21T01:40:57.660Z,13.10
2019-05-21T01:45:00.758Z,12.70
2019-05-21T01:49:05.177Z,15.20
2019-05-21T01:53:08.301Z,14.03
2019-05-21T01:57:11.381Z,14.63
2019-05-21T02:01:14.510Z,15.27
2019-05-21T02:05:32.134Z,17.23
2019-05-21T02:09:22.433Z,17.40
2019-05-21T02:13:25.541Z,15.87
2019-05-21T02:17:28.648Z,21.73
2019-05-21T02:21:31.744Z,20.27
2019-05-21T02:25:34.853Z,19.17
2019-05-21T02:29:37.933Z,19.37
2019-05-21T02:33:41.050Z,22.93
2019-05-21T02:37:44.229Z,21.90
2019-05-21T02:41:48.658Z,22.23
2019-05-21T02:45:51.780Z,21.03
2019-05-21T02:49:55.994Z,19.33
2019-05-21T02:53:59.114Z,23.27
2019-05-21T02:58:02.213Z,25.63
2019-05-21T03:02:25.517Z,31.37
2019-05-21T03:06:28.591Z,22.30
2019-05-21T03:10:31.698Z,26.93
2019-05-21T03:14:35.876Z,24.43
2019-05-21T03:18:39.019Z,25.77
2019-05-21T03:22:42.115Z,30.17
2019-05-21T03:26:46.315Z,35.37
2019-05-21T03:30:50.551Z,34.63
2019-05-21T03:34:55.497Z,31.13
2019-05-21T03:38:59.917Z,37.27
2019-05-21T03:43:03.041Z,32.60
2019-05-21T03:47:06.148Z,35.90
2019-05-21T03:51:09.237Z,34.73
2019-05-21T03:55:12.344Z,28.13
2019-05-21T03:59:15.520Z,22.07
2019-05-21T04:03:18.649Z,19.47
2019-05-21T04:07:21.752Z,21.87
2019-05-21T04:11:24.848Z,19.83
2019-05-21T04:15:29.548Z,26.03
2019-05-21T04:19:36.982Z,17.23
2019-05-21T04:23:41.397Z,17.20
2019-05-21T04:27:44.530Z,15.00
2019-05-21T04:31:49.361Z,11.33
2019-05-21T04:35:52.569Z,13.37
2019-05-21T04:39:55.681Z,13.07
2019-05-21T04:43:58.770Z,10.47
2019-05-21T04:48:01.970Z,13.43
2019-05-21T04:52:05.066Z,15.97
2019-05-21T04:56:08.171Z,12.17
2019-05-21T05:00:11.366Z,13.20
2019-05-21T05:04:14.466Z,12.10
2019-05-21T05:08:17.573Z,12.27
2019-05-21T05:12:20.692Z,12.17
2019-05-21T05:16:25.576Z,10.03
2019-05-21T05:20:29.734Z,13.43
2019-05-21T05:24:32.845Z,13.30
2019-05-21T05:28:35.953Z,11.90
2019-05-21T05:32:39.037Z,14.10
2019-05-21T05:36:42.141Z,15.07
2019-05-21T05:40:45.356Z,11.00
2019-05-21T05:44:48.546Z,12.10
2019-05-21T05:49:01.817Z,13.50
2019-05-21T05:53:05.134Z,10.07
2019-05-21T05:57:09.454Z,13.30
2019-05-21T06:01:12.522Z,12.47
2019-05-21T06:05:15.729Z,8.50
2019-05-21T06:09:18.902Z,12.70
2019-05-21T06:13:23.130Z,9.17
2019-05-21T06:17:27.554Z,8.03
2019-05-21T06:21:30.685Z,12.60
2019-05-21T06:25:33.800Z,18.13
2019-05-21T06:29:39.578Z,11.47
2019-05-21T06:33:42.614Z,9.97
2019-05-21T06:37:45.754Z,13.20
2019-05-21T06:41:48.877Z,9.87
2019-05-21T06:45:53.433Z,11.10
2019-05-21T06:49:56.688Z,9.10
2019-05-21T06:54:05.290Z,10.63
2019-05-21T06:58:08.166Z,11.20
2019-05-21T07:02:12.673Z,8.80
2019-05-21T07:06:15.890Z,12.77
2019-05-21T07:10:19.208Z,9.50
2019-05-21T07:14:28.099Z,11.00
2019-05-21T07:18:32.391Z,8.50
2019-05-21T07:22:37.065Z,11.37
2019-05-21T07:26:40.290Z,8.67
2019-05-21T07:30:43.354Z,7.23
2019-05-21T07:34:46.474Z,5.27
2019-05-21T07:38:53.722Z,9.87
2019-05-21T07:42:54.333Z,10.55
2019-05-21T07:46:57.416Z,9.30
2019-05-21T07:51:00.674Z,7.80
2019-05-21T07:55:04.149Z,8.80
2019-05-21T07:59:07.221Z,7.63
2019-05-21T08:03:11.426Z,6.87
2019-05-21T08:07:14.575Z,3.23
2019-05-21T08:11:17.668Z,5.87
2019-05-21T08:15:21.834Z,5.03
2019-05-21T08:19:25.983Z,8.53
2019-05-21T08:23:29.103Z,4.97
2019-05-21T08:27:33.674Z,4.90
2019-05-21T08:31:36.744Z,5.17
2019-05-21T08:35:39.840Z,6.00
2019-05-21T08:39:42.893Z,6.77
2019-05-21T08:43:46.062Z,4.83
2019-05-21T08:47:50.938Z,5.57
2019-05-21T08:51:54.361Z,4.77
2019-05-21T08:55:58.489Z,4.80
2019-05-21T09:00:02.801Z,4.60
2019-05-21T09:04:06.045Z,6.13
2019-05-21T09:08:09.148Z,2.90
2019-05-21T09:12:12.255Z,7.23
2019-05-21T09:16:15.334Z,4.53
2019-05-21T09:20:18.756Z,3.37
2019-05-21T09:24:21.852Z,6.17
2019-05-21T09:28:24.964Z,9.10
2019-05-21T09:32:28.069Z,7.77
2019-05-21T09:36:31.161Z,9.77
2019-05-21T09:40:34.237Z,3.87
2019-05-21T09:44:37.372Z,8.90
2019-05-21T09:48:40.478Z,5.30
2019-05-21T09:52:43.585Z,11.13
2019-05-21T09:56:47.768Z,8.53
2019-05-21T10:01:16.437Z,9.37
2019-05-21T10:05:21.001Z,6.43
2019-05-21T10:09:24.132Z,9.30
2019-05-21T10:13:27.227Z,15.73
2019-05-21T10:17:30.324Z,9.67
2019-05-21T10:21:33.446Z,10.93
2019-05-21T10:25:36.588Z,13.70
2019-05-21T10:29:39.745Z,9.87
2019-05-21T10:33:42.840Z,10.83
2019-05-21T10:37:54.628Z,9.57
2019-05-21T10:41:50.672Z,9.40
2019-05-21T10:45:53.914Z,9.90
2019-05-21T10:49:56.988Z,13.33
2019-05-21T10:54:00.081Z,11.23
2019-05-21T10:58:03.186Z,15.43
2019-05-21T11:02:22.077Z,9.93
2019-05-21T11:06:25.353Z,13.07
2019-05-21T11:10:28.464Z,13.73
2019-05-21T11:14:31.549Z,7.87
2019-05-21T11:18:34.668Z,11.87
2019-05-21T11:22:37.760Z,10.13
2019-05-21T11:26:40.866Z,10.83
2019-05-21T11:30:43.979Z,12.93
2019-05-21T11:34:50.007Z,14.03
2019-05-21T11:38:52.026Z,18.77
2019-05-21T11:42:55.121Z,16.87
2019-05-21T11:46:58.309Z,13.00
2019-05-21T11:51:01.414Z,13.77
2019-05-21T11:55:04.941Z,10.20
2019-05-21T11:59:08.020Z,12.00
2019-05-21T12:03:11.137Z,10.60
2019-05-21T12:07:14.231Z,21.23
2019-05-21T12:11:17.536Z,20.97
2019-05-21T12:15:22.206Z,19.43
2019-05-21T12:19:26.669Z,20.40
2019-05-21T12:23:30.802Z,14.13
2019-05-21T12:27:33.940Z,13.67
2019-05-21T12:31:37.025Z,14.57
2019-05-21T12:35:40.138Z,20.83
2019-05-21T12:39:43.241Z,18.93
2019-05-21T12:43:48.146Z,10.10
2019-05-21T12:47:51.277Z,11.83
2019-05-21T12:51:54.404Z,15.50
2019-05-21T12:55:57.485Z,25.77
2019-05-21T13:00:00.577Z,16.10
2019-05-21T13:04:03.677Z,10.77
2019-05-21T13:08:06.912Z,13.17
2019-05-21T13:12:09.980Z,12.20
2019-05-21T13:16:13.089Z,9.20
2019-05-21T13:20:16.782Z,11.10
2019-05-21T13:24:19.893Z,9.43
2019-05-21T13:28:22.996Z,8.17
2019-05-21T13:32:26.101Z,13.10
2019-05-21T13:36:29.295Z,10.80
2019-05-21T13:40:33.832Z,10.00
2019-05-21T13:44:36.944Z,12.77
2019-05-21T13:48:40.117Z,8.30
2019-05-21T13:52:43.236Z,10.43
2019-05-21T13:56:46.344Z,9.53
2019-05-21T14:00:56.402Z,11.67
2019-05-21T14:05:00.600Z,9.17
2019-05-21T14:09:04.540Z,8.03
2019-05-21T14:13:07.660Z,9.50
2019-05-21T14:17:10.819Z,7.03
2019-05-21T14:21:15.466Z,7.57
2019-05-21T14:25:18.525Z,6.70
2019-05-21T14:29:21.606Z,8.47
2019-05-21T14:33:24.696Z,6.73
2019-05-21T14:37:27.799Z,9.50
2019-05-21T14:41:30.882Z,7.03
2019-05-21T14:45:34.695Z,5.10
2019-05-21T14:49:37.940Z,5.37
2019-05-21T14:53:41.018Z,7.20
2019-05-21T14:57:44.119Z,8.33
2019-05-21T15:01:47.338Z,5.90
2019-05-21T15:05:50.629Z,12.00
2019-05-21T15:09:55.883Z,7.37
2019-05-21T15:14:00.233Z,10.53
2019-05-21T15:18:03.742Z,8.03
2019-05-21T15:22:06.927Z,6.63
2019-05-21T15:26:11.374Z,6.07
2019-05-21T15:30:14.441Z,5.83
2019-05-21T15:34:17.566Z,10.33
2019-05-21T15:38:20.672Z,7.97
2019-05-21T15:42:24.770Z,7.30
2019-05-21T15:46:27.888Z,6.37
2019-05-21T15:50:32.772Z,7.60
2019-05-21T15:54:35.919Z,7.57
2019-05-21T15:58:39.024Z,8.97
2019-05-21T16:02:42.122Z,7.77
2019-05-21T16:06:45.232Z,12.90
2019-05-21T16:10:48.328Z,15.23
2019-05-21T16:14:52.529Z,16.43
2019-05-21T16:18:55.653Z,16.53
2019-05-21T16:22:59.858Z,10.97
2019-05-21T16:27:02.977Z,17.37
2019-05-21T16:31:06.112Z,8.20
2019-05-21T16:35:15.796Z,1.37
2019-05-21T16:39:20.937Z,3.07
2019-05-21T16:43:26.532Z,3.00
2019-05-21T16:47:44.516Z,3.37
2019-05-21T16:51:37.508Z,4.00
2019-05-21T16:55:42.376Z,3.07
2019-05-21T16:59:46.795Z,2.07
2019-05-21T17:03:59.656Z,1.30
2019-05-21T17:08:07.471Z,2.50
2019-05-21T17:12:13.896Z,1.50
2019-05-21T17:16:17.675Z,3.63
2019-05-21T17:20:20.774Z,2.73
2019-05-21T17:24:26.119Z,3.13
2019-05-21T17:28:29.284Z,4.43
2019-05-21T17:32:33.736Z,3.80
2019-05-21T17:36:41.719Z,2.07
2019-05-21T17:40:47.057Z,6.77
2019-05-21T17:44:57.567Z,1.30
2019-05-21T17:49:02.298Z,1.63
2019-05-21T17:53:15.336Z,1.53
2019-05-21T17:57:26.420Z,1.60
2019-05-21T18:01:30.765Z,4.87
2019-05-21T18:05:34.325Z,2.20
2019-05-21T18:09:38.500Z,1.40
2019-05-21T18:13:41.628Z,4.57
2019-05-21T18:17:45.945Z,1.30
2019-05-21T18:21:50.152Z,1.47
2019-05-21T18:25:58.047Z,3.03
2019-05-21T18:30:04.049Z,2.73
2019-05-21T18:34:08.945Z,3.23
2019-05-21T18:38:12.203Z,2.70
2019-05-21T18:42:22.334Z,2.30
2019-05-21T18:46:21.267Z,1.87
2019-05-21T18:50:35.785Z,1.50
2019-05-21T18:54:29.267Z,3.10
2019-05-21T18:58:32.683Z,2.07
2019-05-21T19:02:37.032Z,5.20
2019-05-21T19:06:40.167Z,1.77
2019-05-21T19:10:43.435Z,2.33
2019-05-21T19:14:51.511Z,2.67
2019-05-21T19:18:54.590Z,1.47
2019-05-21T19:22:59.229Z,7.20
2019-05-21T19:27:02.305Z,2.87
2019-05-21T19:31:05.431Z,1.60
2019-05-21T19:35:19.531Z,1.30
2019-05-21T19:39:22.684Z,2.93
2019-05-21T19:43:25.829Z,1.23
2019-05-21T19:47:31.571Z,1.40
2019-05-21T19:51:36.465Z,1.60
2019-05-21T19:55:39.890Z,1.80
2019-05-21T19:59:51.698Z,1.73
2019-05-21T20:03:54.905Z,1.30
2019-05-21T20:08:00.069Z,1.40
2019-05-21T20:12:12.437Z,3.10
2019-05-21T20:16:17.886Z,1.30
2019-05-21T20:20:22.037Z,1.23
2019-05-21T20:24:26.655Z,2.93
2019-05-21T20:28:30.350Z,1.73
2019-05-21T20:32:33.772Z,5.27
2019-05-21T20:36:40.478Z,2.33
2019-05-21T20:40:42.162Z,2.17
2019-05-21T20:44:47.079Z,2.97
2019-05-21T20:48:52.420Z,2.20
2019-05-21T20:52:55.569Z,4.20
2019-05-21T20:56:58.691Z,2.97
2019-05-21T21:01:03.566Z,2.27
2019-05-21T21:05:07.633Z,2.40
2019-05-21T21:09:13.454Z,3.13
2019-05-21T21:13:16.700Z,2.67
2019-05-21T21:17:20.822Z,2.20
2019-05-21T21:21:24.089Z,3.60
2019-05-21T21:25:27.429Z,3.57
2019-05-21T21:29:30.570Z,3.40
2019-05-21T21:33:33.633Z,7.87
2019-05-21T21:37:37.142Z,3.67
2019-05-21T21:41:40.952Z,3.70
2019-05-21T21:45:44.064Z,3.50
2019-05-21T21:49:48.939Z,2.20
2019-05-21T21:53:15.503Z,2.83
2019-05-21T21:53:40.226Z,3.62
2019-05-21T21:54:04.769Z,3.90
2019-05-21T21:54:29.861Z,8.35
2019-05-21T21:54:54.229Z,4.63
2019-05-21T21:55:18.387Z,9.15
2019-05-21T21:55:42.929Z,7.65
2019-05-21T21:56:07.462Z,6.17
2019-05-21T21:56:49.025Z,2.62
2019-05-21T22:02:14.757Z,3.57
2019-05-21T22:06:19.163Z,4.73
2019-05-21T22:10:22.247Z,5.93
2019-05-21T22:14:25.335Z,4.57
2019-05-21T22:18:28.995Z,4.07
2019-05-21T22:22:32.244Z,2.90
2019-05-21T22:26:35.348Z,4.27
2019-05-21T22:30:38.636Z,3.67
2019-05-21T22:34:41.843Z,3.40
2019-05-21T22:38:44.965Z,5.50
2019-05-21T22:42:48.462Z,5.03
2019-05-21T22:46:52.383Z,6.33
2019-05-21T22:50:55.495Z,2.83
2019-05-21T22:54:58.586Z,2.30
2019-05-21T22:59:01.957Z,6.15
2019-05-21T23:03:05.828Z,2.63
2019-05-21T23:07:08.923Z,7.57
2019-05-21T23:11:12.088Z,2.97
2019-05-21T23:15:24.270Z,4.33
2019-05-21T23:19:24.123Z,4.97
2019-05-21T23:23:26.959Z,3.23
2019-05-21T23:27:30.194Z,3.43
2019-05-21T23:31:33.707Z,3.50
2019-05-21T23:35:37.783Z,6.93
2019-05-21T23:39:42.127Z,4.23
2019-05-21T23:43:46.748Z,3.23
2019-05-21T23:47:49.973Z,4.90
2019-05-21T23:51:53.752Z,3.13
2019-05-21T23:55:57.358Z,2.73
